sensor_id;sensor_type;location;lat;lon;timestamp;temperature;humidity
71237;DHT22;58984;51.960;5.582;2023-03-01T00:01:34;11.20;40.10
71237;DHT22;58984;51.960;5.582;2023-03-01T00:03:59;11.20;40.10
71237;DHT22;58984;51.960;5.582;2023-03-01T00:06:25;11.20;40.10
71237;DHT22;58984;51.960;5.582;2023-03-01T00:08:51;11.20;40.10
71237;DHT22;58984;51.960;5.582;2023-03-01T00:11:24;11.20;40.10
71237;DHT22;58984;51.960;5.582;2023-03-01T00:13:53;11.20;40.20
71237;DHT22;58984;51.960;5.582;2023-03-01T00:16:21;11.10;40.20
71237;DHT22;58984;51.960;5.582;2023-03-01T00:18:47;11.10;40.30
71237;DHT22;58984;51.960;5.582;2023-03-01T00:21:13;11.10;40.20
71237;DHT22;58984;51.960;5.582;2023-03-01T00:23:38;11.10;40.30
71237;DHT22;58984;51.960;5.582;2023-03-01T00:26:12;11.10;40.30
71237;DHT22;58984;51.960;5.582;2023-03-01T00:28:39;11.00;40.20
71237;DHT22;58984;51.960;5.582;2023-03-01T00:31:06;11.10;40.30
71237;DHT22;58984;51.960;5.582;2023-03-01T00:33:32;11.00;40.20
71237;DHT22;58984;51.960;5.582;2023-03-01T00:35:58;11.00;40.20
71237;DHT22;58984;51.960;5.582;2023-03-01T00:38:24;11.00;40.30
71237;DHT22;58984;51.960;5.582;2023-03-01T00:40:50;11.00;41.00
71237;DHT22;58984;51.960;5.582;2023-03-01T00:43:15;11.00;40.30
71237;DHT22;58984;51.960;5.582;2023-03-01T00:45:41;11.00;40.30
71237;DHT22;58984;51.960;5.582;2023-03-01T00:48:06;10.90;40.30
71237;DHT22;58984;51.960;5.582;2023-03-01T00:50:32;11.00;40.50
71237;DHT22;58984;51.960;5.582;2023-03-01T00:52:58;10.90;40.40
71237;DHT22;58984;51.960;5.582;2023-03-01T00:55:24;10.90;40.50
71237;DHT22;58984;51.960;5.582;2023-03-01T00:57:50;10.90;40.50
71237;DHT22;58984;51.960;5.582;2023-03-01T01:00:16;10.90;40.50
71237;DHT22;58984;51.960;5.582;2023-03-01T01:02:42;10.80;40.40
71237;DHT22;58984;51.960;5.582;2023-03-01T01:05:07;10.80;40.50
71237;DHT22;58984;51.960;5.582;2023-03-01T01:07:33;10.80;40.50
71237;DHT22;58984;51.960;5.582;2023-03-01T01:09:59;10.80;40.50
71237;DHT22;58984;51.960;5.582;2023-03-01T01:12:24;10.80;40.50
71237;DHT22;58984;51.960;5.582;2023-03-01T01:14:50;10.70;40.50
71237;DHT22;58984;51.960;5.582;2023-03-01T01:17:15;10.70;40.60
71237;DHT22;58984;51.960;5.582;2023-03-01T01:19:41;10.70;40.50
71237;DHT22;58984;51.960;5.582;2023-03-01T01:22:07;10.70;40.50
71237;DHT22;58984;51.960;5.582;2023-03-01T01:24:32;10.70;40.50
71237;DHT22;58984;51.960;5.582;2023-03-01T01:26:58;10.70;40.70
71237;DHT22;58984;51.960;5.582;2023-03-01T01:29:23;10.70;40.70
71237;DHT22;58984;51.960;5.582;2023-03-01T01:31:49;10.70;40.70
71237;DHT22;58984;51.960;5.582;2023-03-01T01:34:18;10.60;40.70
71237;DHT22;58984;51.960;5.582;2023-03-01T01:36:44;10.60;40.80
71237;DHT22;58984;51.960;5.582;2023-03-01T01:39:12;10.60;40.80
71237;DHT22;58984;51.960;5.582;2023-03-01T01:41:40;10.60;40.80
71237;DHT22;58984;51.960;5.582;2023-03-01T01:44:19;10.60;40.90
71237;DHT22;58984;51.960;5.582;2023-03-01T01:49:35;10.50;40.70
71237;DHT22;58984;51.960;5.582;2023-03-01T01:52:10;10.50;40.70
71237;DHT22;58984;51.960;5.582;2023-03-01T01:55:14;10.50;40.70
71237;DHT22;58984;51.960;5.582;2023-03-01T01:57:36;10.40;40.70
71237;DHT22;58984;51.960;5.582;2023-03-01T02:00:11;10.50;40.70
71237;DHT22;58984;51.960;5.582;2023-03-01T02:02:38;10.40;40.70
71237;DHT22;58984;51.960;5.582;2023-03-01T02:05:38;10.40;40.70
71237;DHT22;58984;51.960;5.582;2023-03-01T02:08:05;10.30;40.60
71237;DHT22;58984;51.960;5.582;2023-03-01T02:10:33;10.40;40.70
71237;DHT22;58984;51.960;5.582;2023-03-01T02:13:00;10.40;40.70
71237;DHT22;58984;51.960;5.582;2023-03-01T02:15:26;10.30;40.60
71237;DHT22;58984;51.960;5.582;2023-03-01T02:17:53;10.30;40.60
71237;DHT22;58984;51.960;5.582;2023-03-01T02:22:46;10.30;40.60
71237;DHT22;58984;51.960;5.582;2023-03-01T02:28:00;10.30;40.60
71237;DHT22;58984;51.960;5.582;2023-03-01T02:30:28;10.20;40.50
71237;DHT22;58984;51.960;5.582;2023-03-01T02:32:56;10.20;40.50
71237;DHT22;58984;51.960;5.582;2023-03-01T02:35:29;10.20;40.50
71237;DHT22;58984;51.960;5.582;2023-03-01T02:37:56;10.20;40.50
71237;DHT22;58984;51.960;5.582;2023-03-01T02:40:23;10.20;40.50
71237;DHT22;58984;51.960;5.582;2023-03-01T02:42:53;10.10;40.60
71237;DHT22;58984;51.960;5.582;2023-03-01T02:45:19;10.10;40.70
71237;DHT22;58984;51.960;5.582;2023-03-01T02:47:45;10.10;40.70
71237;DHT22;58984;51.960;5.582;2023-03-01T02:51:11;10.10;40.80
71237;DHT22;58984;51.960;5.582;2023-03-01T02:56:27;10.00;40.70
71237;DHT22;58984;51.960;5.582;2023-03-01T02:58:53;10.00;40.80
71237;DHT22;58984;51.960;5.582;2023-03-01T03:01:20;10.00;41.50
71237;DHT22;58984;51.960;5.582;2023-03-01T03:03:46;10.00;40.90
71237;DHT22;58984;51.960;5.582;2023-03-01T03:06:12;10.00;41.00
71237;DHT22;58984;51.960;5.582;2023-03-01T03:08:37;10.00;40.90
71237;DHT22;58984;51.960;5.582;2023-03-01T03:11:03;10.00;41.00
71237;DHT22;58984;51.960;5.582;2023-03-01T03:13:29;9.90;41.80
71237;DHT22;58984;51.960;5.582;2023-03-01T03:15:56;9.90;41.80
71237;DHT22;58984;51.960;5.582;2023-03-01T03:18:22;9.90;41.80
71237;DHT22;58984;51.960;5.582;2023-03-01T03:20:48;9.90;41.90
71237;DHT22;58984;51.960;5.582;2023-03-01T03:23:21;9.90;41.80
71237;DHT22;58984;51.960;5.582;2023-03-01T03:25:50;9.80;41.80
71237;DHT22;58984;51.960;5.582;2023-03-01T03:28:16;9.80;41.80
71237;DHT22;58984;51.960;5.582;2023-03-01T03:30:44;9.80;41.80
71237;DHT22;58984;51.960;5.582;2023-03-01T03:33:11;9.80;41.80
71237;DHT22;58984;51.960;5.582;2023-03-01T03:35:48;9.80;41.80
71237;DHT22;58984;51.960;5.582;2023-03-01T03:38:15;9.80;41.90
71237;DHT22;58984;51.960;5.582;2023-03-01T03:41:06;9.80;42.50
71237;DHT22;58984;51.960;5.582;2023-03-01T03:43:34;9.80;42.00
71237;DHT22;58984;51.960;5.582;2023-03-01T03:46:00;9.80;42.00
71237;DHT22;58984;51.960;5.582;2023-03-01T03:48:31;9.70;41.90
71237;DHT22;58984;51.960;5.582;2023-03-01T03:50:58;9.80;42.00
71237;DHT22;58984;51.960;5.582;2023-03-01T03:53:28;9.70;42.00
71237;DHT22;58984;51.960;5.582;2023-03-01T03:55:54;9.70;42.00
71237;DHT22;58984;51.960;5.582;2023-03-01T03:58:21;9.70;42.00
71237;DHT22;58984;51.960;5.582;2023-03-01T04:00:50;9.70;42.00
71237;DHT22;58984;51.960;5.582;2023-03-01T04:03:17;9.60;42.00
71237;DHT22;58984;51.960;5.582;2023-03-01T04:05:44;9.60;42.00
71237;DHT22;58984;51.960;5.582;2023-03-01T04:08:11;9.60;42.10
71237;DHT22;58984;51.960;5.582;2023-03-01T04:10:39;9.60;42.10
71237;DHT22;58984;51.960;5.582;2023-03-01T04:13:05;9.60;42.00
71237;DHT22;58984;51.960;5.582;2023-03-01T04:15:32;9.60;42.10
71237;DHT22;58984;51.960;5.582;2023-03-01T04:17:59;9.60;42.10
71237;DHT22;58984;51.960;5.582;2023-03-01T04:20:27;9.50;42.00
71237;DHT22;58984;51.960;5.582;2023-03-01T04:23:05;9.60;42.70
71237;DHT22;58984;51.960;5.582;2023-03-01T04:25:51;9.50;42.00
71237;DHT22;58984;51.960;5.582;2023-03-01T04:28:49;9.50;42.00
71237;DHT22;58984;51.960;5.582;2023-03-01T04:31:18;9.50;42.10
71237;DHT22;58984;51.960;5.582;2023-03-01T04:33:48;9.50;42.10
71237;DHT22;58984;51.960;5.582;2023-03-01T04:36:15;9.50;42.20
71237;DHT22;58984;51.960;5.582;2023-03-01T04:38:42;9.40;42.10
71237;DHT22;58984;51.960;5.582;2023-03-01T04:41:09;9.40;42.10
71237;DHT22;58984;51.960;5.582;2023-03-01T04:43:36;9.40;42.20
71237;DHT22;58984;51.960;5.582;2023-03-01T04:46:04;9.40;42.20
71237;DHT22;58984;51.960;5.582;2023-03-01T04:48:32;9.40;42.20
71237;DHT22;58984;51.960;5.582;2023-03-01T04:50:59;9.40;42.30
71237;DHT22;58984;51.960;5.582;2023-03-01T04:53:24;9.40;42.30
71237;DHT22;58984;51.960;5.582;2023-03-01T04:55:50;9.40;42.20
71237;DHT22;58984;51.960;5.582;2023-03-01T04:58:16;9.30;42.20
71237;DHT22;58984;51.960;5.582;2023-03-01T05:00:41;9.30;42.20
71237;DHT22;58984;51.960;5.582;2023-03-01T05:03:08;9.30;42.30
71237;DHT22;58984;51.960;5.582;2023-03-01T05:05:36;9.30;42.30
71237;DHT22;58984;51.960;5.582;2023-03-01T05:08:04;9.30;42.30
71237;DHT22;58984;51.960;5.582;2023-03-01T05:10:31;9.30;42.30
71237;DHT22;58984;51.960;5.582;2023-03-01T05:12:58;9.30;42.30
71237;DHT22;58984;51.960;5.582;2023-03-01T05:15:28;9.20;42.20
71237;DHT22;58984;51.960;5.582;2023-03-01T05:17:56;9.20;42.30
71237;DHT22;58984;51.960;5.582;2023-03-01T05:20:24;9.20;42.30
71237;DHT22;58984;51.960;5.582;2023-03-01T05:22:51;9.20;42.30
71237;DHT22;58984;51.960;5.582;2023-03-01T05:25:17;9.20;42.30
71237;DHT22;58984;51.960;5.582;2023-03-01T05:27:42;9.20;42.30
71237;DHT22;58984;51.960;5.582;2023-03-01T05:30:09;9.20;42.30
71237;DHT22;58984;51.960;5.582;2023-03-01T05:32:46;9.20;42.40
71237;DHT22;58984;51.960;5.582;2023-03-01T05:35:13;9.10;42.20
71237;DHT22;58984;51.960;5.582;2023-03-01T05:37:43;9.10;42.30
71237;DHT22;58984;51.960;5.582;2023-03-01T05:40:11;9.10;42.40
71237;DHT22;58984;51.960;5.582;2023-03-01T05:42:59;9.10;42.40
71237;DHT22;58984;51.960;5.582;2023-03-01T05:45:26;9.10;42.40
71237;DHT22;58984;51.960;5.582;2023-03-01T05:47:53;9.10;42.40
71237;DHT22;58984;51.960;5.582;2023-03-01T05:50:22;9.10;42.40
71237;DHT22;58984;51.960;5.582;2023-03-01T05:52:51;9.10;42.50
71237;DHT22;58984;51.960;5.582;2023-03-01T05:55:18;9.10;42.50
71237;DHT22;58984;51.960;5.582;2023-03-01T05:57:44;9.00;42.50
71237;DHT22;58984;51.960;5.582;2023-03-01T06:00:11;9.00;42.40
71237;DHT22;58984;51.960;5.582;2023-03-01T06:02:37;9.00;42.50
71237;DHT22;58984;51.960;5.582;2023-03-01T06:05:04;9.00;42.50
71237;DHT22;58984;51.960;5.582;2023-03-01T06:07:30;9.00;42.50
71237;DHT22;58984;51.960;5.582;2023-03-01T06:09:56;9.00;42.50
71237;DHT22;58984;51.960;5.582;2023-03-01T06:12:22;9.00;42.50
71237;DHT22;58984;51.960;5.582;2023-03-01T06:14:47;9.00;42.60
71237;DHT22;58984;51.960;5.582;2023-03-01T06:17:13;9.00;42.60
71237;DHT22;58984;51.960;5.582;2023-03-01T06:19:39;9.00;42.60
71237;DHT22;58984;51.960;5.582;2023-03-01T06:22:04;9.00;42.60
71237;DHT22;58984;51.960;5.582;2023-03-01T06:24:30;8.90;42.60
71237;DHT22;58984;51.960;5.582;2023-03-01T06:26:55;8.90;42.60
71237;DHT22;58984;51.960;5.582;2023-03-01T06:29:22;8.90;42.60
71237;DHT22;58984;51.960;5.582;2023-03-01T06:31:48;8.90;42.70
71237;DHT22;58984;51.960;5.582;2023-03-01T06:34:14;8.90;42.70
71237;DHT22;58984;51.960;5.582;2023-03-01T06:36:40;8.90;42.60
71237;DHT22;58984;51.960;5.582;2023-03-01T06:39:06;8.90;42.70
71237;DHT22;58984;51.960;5.582;2023-03-01T06:41:32;8.90;42.80
71237;DHT22;58984;51.960;5.582;2023-03-01T06:43:59;8.90;42.70
71237;DHT22;58984;51.960;5.582;2023-03-01T06:46:24;8.90;42.70
71237;DHT22;58984;51.960;5.582;2023-03-01T06:48:50;8.80;42.70
71237;DHT22;58984;51.960;5.582;2023-03-01T06:51:15;8.80;42.70
71237;DHT22;58984;51.960;5.582;2023-03-01T06:53:41;8.80;42.70
71237;DHT22;58984;51.960;5.582;2023-03-01T06:56:06;8.80;42.70
71237;DHT22;58984;51.960;5.582;2023-03-01T06:58:32;8.80;42.70
71237;DHT22;58984;51.960;5.582;2023-03-01T07:00:58;8.80;42.70
71237;DHT22;58984;51.960;5.582;2023-03-01T07:03:23;8.70;42.60
71237;DHT22;58984;51.960;5.582;2023-03-01T07:05:49;8.70;42.60
71237;DHT22;58984;51.960;5.582;2023-03-01T07:08:18;8.70;42.70
71237;DHT22;58984;51.960;5.582;2023-03-01T07:10:44;8.70;42.80
71237;DHT22;58984;51.960;5.582;2023-03-01T07:13:09;8.70;42.80
71237;DHT22;58984;51.960;5.582;2023-03-01T07:15:35;8.70;42.90
71237;DHT22;58984;51.960;5.582;2023-03-01T07:18:01;8.70;43.50
71237;DHT22;58984;51.960;5.582;2023-03-01T07:20:27;8.70;42.90
71237;DHT22;58984;51.960;5.582;2023-03-01T07:22:53;8.70;43.00
71237;DHT22;58984;51.960;5.582;2023-03-01T07:25:19;8.70;43.00
71237;DHT22;58984;51.960;5.582;2023-03-01T07:27:51;8.70;43.00
71237;DHT22;58984;51.960;5.582;2023-03-01T07:30:18;8.70;43.00
71237;DHT22;58984;51.960;5.582;2023-03-01T07:32:43;8.70;43.00
71237;DHT22;58984;51.960;5.582;2023-03-01T07:35:10;8.70;43.00
71237;DHT22;58984;51.960;5.582;2023-03-01T07:37:36;8.70;43.10
71237;DHT22;58984;51.960;5.582;2023-03-01T07:40:01;8.70;43.10
71237;DHT22;58984;51.960;5.582;2023-03-01T07:42:27;8.70;43.20
71237;DHT22;58984;51.960;5.582;2023-03-01T07:44:52;8.70;43.20
71237;DHT22;58984;51.960;5.582;2023-03-01T07:47:18;8.60;43.30
71237;DHT22;58984;51.960;5.582;2023-03-01T07:49:44;8.60;42.80
71237;DHT22;58984;51.960;5.582;2023-03-01T07:52:10;8.60;42.90
71237;DHT22;58984;51.960;5.582;2023-03-01T07:54:37;8.60;43.10
71237;DHT22;58984;51.960;5.582;2023-03-01T07:57:03;8.60;43.20
71237;DHT22;58984;51.960;5.582;2023-03-01T07:59:29;8.60;43.30
71237;DHT22;58984;51.960;5.582;2023-03-01T08:01:58;8.60;43.40
71237;DHT22;58984;51.960;5.582;2023-03-01T08:04:23;8.60;43.40
71237;DHT22;58984;51.960;5.582;2023-03-01T08:06:52;8.60;43.40
71237;DHT22;58984;51.960;5.582;2023-03-01T08:09:17;8.60;43.40
71237;DHT22;58984;51.960;5.582;2023-03-01T08:11:43;8.60;43.50
71237;DHT22;58984;51.960;5.582;2023-03-01T08:14:09;8.60;43.60
71237;DHT22;58984;51.960;5.582;2023-03-01T08:16:36;8.60;43.70
71237;DHT22;58984;51.960;5.582;2023-03-01T08:19:09;8.60;43.70
71237;DHT22;58984;51.960;5.582;2023-03-01T08:21:36;8.60;43.80
71237;DHT22;58984;51.960;5.582;2023-03-01T08:24:03;8.60;43.80
71237;DHT22;58984;51.960;5.582;2023-03-01T08:26:29;8.60;43.80
71237;DHT22;58984;51.960;5.582;2023-03-01T08:28:54;8.70;43.90
71237;DHT22;58984;51.960;5.582;2023-03-01T08:33:52;8.70;44.00
71237;DHT22;58984;51.960;5.582;2023-03-01T08:36:21;8.70;44.10
71237;DHT22;58984;51.960;5.582;2023-03-01T08:38:47;8.70;44.00
71237;DHT22;58984;51.960;5.582;2023-03-01T08:41:13;8.70;44.70
71237;DHT22;58984;51.960;5.582;2023-03-01T08:43:38;8.70;44.20
71237;DHT22;58984;51.960;5.582;2023-03-01T08:46:04;8.80;44.40
71237;DHT22;58984;51.960;5.582;2023-03-01T08:48:30;8.80;44.40
71237;DHT22;58984;51.960;5.582;2023-03-01T08:50:55;8.80;44.40
71237;DHT22;58984;51.960;5.582;2023-03-01T08:53:21;8.80;44.50
71237;DHT22;58984;51.960;5.582;2023-03-01T08:55:46;8.80;44.50
71237;DHT22;58984;51.960;5.582;2023-03-01T08:58:12;8.80;44.60
71237;DHT22;58984;51.960;5.582;2023-03-01T09:00:38;8.80;44.70
71237;DHT22;58984;51.960;5.582;2023-03-01T09:03:03;8.90;44.80
71237;DHT22;58984;51.960;5.582;2023-03-01T09:05:33;8.90;44.90
71237;DHT22;58984;51.960;5.582;2023-03-01T09:07:59;8.90;44.90
71237;DHT22;58984;51.960;5.582;2023-03-01T09:10:25;9.00;45.00
71237;DHT22;58984;51.960;5.582;2023-03-01T09:12:51;9.00;45.10
71237;DHT22;58984;51.960;5.582;2023-03-01T09:15:17;9.10;45.30
71237;DHT22;58984;51.960;5.582;2023-03-01T09:17:42;9.10;45.30
71237;DHT22;58984;51.960;5.582;2023-03-01T09:20:09;9.20;45.60
71237;DHT22;58984;51.960;5.582;2023-03-01T09:22:35;9.30;45.80
71237;DHT22;58984;51.960;5.582;2023-03-01T09:25:01;9.40;45.80
71237;DHT22;58984;51.960;5.582;2023-03-01T09:27:26;9.50;45.90
71237;DHT22;58984;51.960;5.582;2023-03-01T09:29:52;9.50;45.90
71237;DHT22;58984;51.960;5.582;2023-03-01T09:32:17;9.70;46.10
71237;DHT22;58984;51.960;5.582;2023-03-01T09:34:43;9.70;46.10
71237;DHT22;58984;51.960;5.582;2023-03-01T09:37:29;9.80;46.30
71237;DHT22;58984;51.960;5.582;2023-03-01T09:39:54;9.90;46.60
71237;DHT22;58984;51.960;5.582;2023-03-01T09:42:20;10.00;45.80
71237;DHT22;58984;51.960;5.582;2023-03-01T09:44:58;10.10;46.10
71237;DHT22;58984;51.960;5.582;2023-03-01T09:47:28;10.20;46.20
71237;DHT22;58984;51.960;5.582;2023-03-01T09:50:17;10.30;46.30
71237;DHT22;58984;51.960;5.582;2023-03-01T09:52:49;10.30;46.30
71237;DHT22;58984;51.960;5.582;2023-03-01T09:55:30;10.50;46.60
71237;DHT22;58984;51.960;5.582;2023-03-01T09:58:00;10.60;46.70
71237;DHT22;58984;51.960;5.582;2023-03-01T10:00:43;10.70;46.70
71237;DHT22;58984;51.960;5.582;2023-03-01T10:03:21;10.80;46.80
71237;DHT22;58984;51.960;5.582;2023-03-01T10:08:36;10.90;47.00
71237;DHT22;58984;51.960;5.582;2023-03-01T10:11:05;11.10;47.00
71237;DHT22;58984;51.960;5.582;2023-03-01T10:16:36;11.30;47.30
71237;DHT22;58984;51.960;5.582;2023-03-01T10:19:04;11.40;47.30
71237;DHT22;58984;51.960;5.582;2023-03-01T10:21:39;11.50;47.20
71237;DHT22;58984;51.960;5.582;2023-03-01T10:24:19;11.60;47.40
71237;DHT22;58984;51.960;5.582;2023-03-01T10:26:56;11.70;47.30
71237;DHT22;58984;51.960;5.582;2023-03-01T10:29:31;11.80;47.60
71237;DHT22;58984;51.960;5.582;2023-03-01T10:32:00;11.90;47.70
71237;DHT22;58984;51.960;5.582;2023-03-01T10:34:31;12.00;47.70
71237;DHT22;58984;51.960;5.582;2023-03-01T10:37:13;12.10;47.70
71237;DHT22;58984;51.960;5.582;2023-03-01T10:39:58;12.20;47.90
71237;DHT22;58984;51.960;5.582;2023-03-01T10:42:28;12.30;48.20
71237;DHT22;58984;51.960;5.582;2023-03-01T10:44:54;12.40;48.10
71237;DHT22;58984;51.960;5.582;2023-03-01T10:47:22;12.70;47.90
71237;DHT22;58984;51.960;5.582;2023-03-01T10:49:57;12.60;48.20
71237;DHT22;58984;51.960;5.582;2023-03-01T10:52:35;12.70;48.40
71237;DHT22;58984;51.960;5.582;2023-03-01T10:57:47;13.00;48.50
71237;DHT22;58984;51.960;5.582;2023-03-01T11:00:24;13.10;48.50
71237;DHT22;58984;51.960;5.582;2023-03-01T11:03:12;13.20;48.80
71237;DHT22;58984;51.960;5.582;2023-03-01T11:05:52;13.30;48.80
71237;DHT22;58984;51.960;5.582;2023-03-01T11:08:36;13.40;48.80
71237;DHT22;58984;51.960;5.582;2023-03-01T11:11:17;13.60;49.00
71237;DHT22;58984;51.960;5.582;2023-03-01T11:16:32;13.80;49.10
71237;DHT22;58984;51.960;5.582;2023-03-01T11:22:13;14.00;49.40
71237;DHT22;58984;51.960;5.582;2023-03-01T11:24:46;14.10;49.40
71237;DHT22;58984;51.960;5.582;2023-03-01T11:27:26;14.20;49.40
71237;DHT22;58984;51.960;5.582;2023-03-01T11:32:25;14.40;49.60
71237;DHT22;58984;51.960;5.582;2023-03-01T11:35:04;14.50;49.60
71237;DHT22;58984;51.960;5.582;2023-03-01T11:40:44;14.70;49.90
71237;DHT22;58984;51.960;5.582;2023-03-01T11:54:35;15.30;50.00
71237;DHT22;58984;51.960;5.582;2023-03-01T11:57:27;15.30;50.00
71237;DHT22;58984;51.960;5.582;2023-03-01T12:00:11;15.50;50.10
71237;DHT22;58984;51.960;5.582;2023-03-01T12:05:33;15.60;50.20
71237;DHT22;58984;51.960;5.582;2023-03-01T12:10:58;15.90;50.00
71237;DHT22;58984;51.960;5.582;2023-03-01T12:22:31;16.30;49.30
71237;DHT22;58984;51.960;5.582;2023-03-01T12:30:49;16.60;49.30
71237;DHT22;58984;51.960;5.582;2023-03-01T12:33:38;16.60;49.10
71237;DHT22;58984;51.960;5.582;2023-03-01T12:36:31;16.70;49.00
71237;DHT22;58984;51.960;5.582;2023-03-01T12:42:01;16.90;49.20
71237;DHT22;58984;51.960;5.582;2023-03-01T12:47:19;17.10;49.10
71237;DHT22;58984;51.960;5.582;2023-03-01T12:49:54;17.10;49.00
71237;DHT22;58984;51.960;5.582;2023-03-01T12:52:43;17.20;48.70
71237;DHT22;58984;51.960;5.582;2023-03-01T12:55:29;17.30;48.80
71237;DHT22;58984;51.960;5.582;2023-03-01T12:58:24;17.30;48.50
71237;DHT22;58984;51.960;5.582;2023-03-01T13:06:38;17.50;48.70
71237;DHT22;58984;51.960;5.582;2023-03-01T13:09:39;17.60;48.40
71237;DHT22;58984;51.960;5.582;2023-03-01T13:17:49;17.70;48.60
71237;DHT22;58984;51.960;5.582;2023-03-01T13:20:18;17.80;48.30
71237;DHT22;58984;51.960;5.582;2023-03-01T13:22:46;17.90;47.90
71237;DHT22;58984;51.960;5.582;2023-03-01T13:25:16;17.90;48.00
71237;DHT22;58984;51.960;5.582;2023-03-01T13:27:42;17.90;48.00
71237;DHT22;58984;51.960;5.582;2023-03-01T13:33:39;17.90;47.50
71237;DHT22;58984;51.960;5.582;2023-03-01T13:36:07;18.00;47.70
71237;DHT22;58984;51.960;5.582;2023-03-01T13:49:41;17.70;37.30
71237;DHT22;58984;51.960;5.582;2023-03-01T13:55:03;17.10;36.40
71237;DHT22;58984;51.960;5.582;2023-03-01T13:57:34;17.10;36.30
71237;DHT22;58984;51.960;5.582;2023-03-01T14:00:00;17.10;35.80
71237;DHT22;58984;51.960;5.582;2023-03-01T14:02:25;17.00;35.50
71237;DHT22;58984;51.960;5.582;2023-03-01T14:04:59;16.90;34.30
71237;DHT22;58984;51.960;5.582;2023-03-01T14:07:26;16.90;34.80
71237;DHT22;58984;51.960;5.582;2023-03-01T14:10:05;16.90;33.70
71237;DHT22;58984;51.960;5.582;2023-03-01T14:15:29;16.70;32.80
71237;DHT22;58984;51.960;5.582;2023-03-01T14:18:07;16.70;33.30
71237;DHT22;58984;51.960;5.582;2023-03-01T14:20:41;16.70;33.50
71237;DHT22;58984;51.960;5.582;2023-03-01T14:23:12;16.70;32.90
71237;DHT22;58984;51.960;5.582;2023-03-01T14:25:55;16.70;32.90
71237;DHT22;58984;51.960;5.582;2023-03-01T14:28:24;16.70;32.50
71237;DHT22;58984;51.960;5.582;2023-03-01T14:30:53;16.70;33.00
71237;DHT22;58984;51.960;5.582;2023-03-01T14:40:59;17.00;30.60
71237;DHT22;58984;51.960;5.582;2023-03-01T14:43:27;16.90;31.20
71237;DHT22;58984;51.960;5.582;2023-03-01T14:45:54;17.00;31.20
71237;DHT22;58984;51.960;5.582;2023-03-01T14:48:20;17.00;31.20
71237;DHT22;58984;51.960;5.582;2023-03-01T14:50:46;17.00;30.20
71237;DHT22;58984;51.960;5.582;2023-03-01T14:53:19;17.00;30.60
71237;DHT22;58984;51.960;5.582;2023-03-01T14:55:56;16.90;30.50
71237;DHT22;58984;51.960;5.582;2023-03-01T14:58:26;16.80;30.10
71237;DHT22;58984;51.960;5.582;2023-03-01T15:00:58;16.80;30.00
71237;DHT22;58984;51.960;5.582;2023-03-01T15:03:56;16.60;30.90
71237;DHT22;58984;51.960;5.582;2023-03-01T15:06:23;16.50;30.10
71237;DHT22;58984;51.960;5.582;2023-03-01T15:08:53;16.20;30.00
71237;DHT22;58984;51.960;5.582;2023-03-01T15:11:33;16.10;30.60
71237;DHT22;58984;51.960;5.582;2023-03-01T15:13:59;16.00;30.80
71237;DHT22;58984;51.960;5.582;2023-03-01T15:16:30;15.90;31.00
71237;DHT22;58984;51.960;5.582;2023-03-01T15:19:05;15.80;30.80
71237;DHT22;58984;51.960;5.582;2023-03-01T15:21:38;15.70;30.20
71237;DHT22;58984;51.960;5.582;2023-03-01T15:26:58;15.60;32.40
71237;DHT22;58984;51.960;5.582;2023-03-01T15:29:29;15.60;33.50
71237;DHT22;58984;51.960;5.582;2023-03-01T15:32:04;15.80;34.10
71237;DHT22;58984;51.960;5.582;2023-03-01T15:34:32;15.60;33.10
71237;DHT22;58984;51.960;5.582;2023-03-01T15:36:59;15.60;32.20
71237;DHT22;58984;51.960;5.582;2023-03-01T15:47:36;15.40;35.00
71237;DHT22;58984;51.960;5.582;2023-03-01T15:50:04;15.40;35.60
71237;DHT22;58984;51.960;5.582;2023-03-01T15:52:35;15.40;36.00
71237;DHT22;58984;51.960;5.582;2023-03-01T15:55:14;15.40;36.30
71237;DHT22;58984;51.960;5.582;2023-03-01T15:57:40;15.40;36.60
71237;DHT22;58984;51.960;5.582;2023-03-01T16:00:09;15.40;36.80
71237;DHT22;58984;51.960;5.582;2023-03-01T16:02:39;15.30;36.80
71237;DHT22;58984;51.960;5.582;2023-03-01T16:05:05;15.30;37.00
71237;DHT22;58984;51.960;5.582;2023-03-01T16:07:31;15.30;37.00
71237;DHT22;58984;51.960;5.582;2023-03-01T16:09:57;15.20;37.00
71237;DHT22;58984;51.960;5.582;2023-03-01T16:12:23;15.20;37.20
71237;DHT22;58984;51.960;5.582;2023-03-01T16:14:50;15.10;37.20
71237;DHT22;58984;51.960;5.582;2023-03-01T16:17:15;15.10;37.20
71237;DHT22;58984;51.960;5.582;2023-03-01T16:19:41;15.10;37.30
71237;DHT22;58984;51.960;5.582;2023-03-01T16:22:10;15.10;37.40
71237;DHT22;58984;51.960;5.582;2023-03-01T16:24:35;15.00;37.40
71237;DHT22;58984;51.960;5.582;2023-03-01T16:27:01;15.00;37.70
71237;DHT22;58984;51.960;5.582;2023-03-01T16:29:27;14.90;37.70
71237;DHT22;58984;51.960;5.582;2023-03-01T16:31:54;14.90;37.90
71237;DHT22;58984;51.960;5.582;2023-03-01T16:34:20;14.90;37.90
71237;DHT22;58984;51.960;5.582;2023-03-01T16:36:48;14.80;37.80
71237;DHT22;58984;51.960;5.582;2023-03-01T16:39:14;14.80;38.00
71237;DHT22;58984;51.960;5.582;2023-03-01T16:41:39;14.70;37.90
71237;DHT22;58984;51.960;5.582;2023-03-01T16:44:05;14.70;38.10
71237;DHT22;58984;51.960;5.582;2023-03-01T16:46:31;14.70;38.10
71237;DHT22;58984;51.960;5.582;2023-03-01T16:48:56;14.70;38.10
71237;DHT22;58984;51.960;5.582;2023-03-01T16:51:23;14.60;38.10
71237;DHT22;58984;51.960;5.582;2023-03-01T16:53:50;14.60;38.10
71237;DHT22;58984;51.960;5.582;2023-03-01T16:56:17;14.50;38.20
71237;DHT22;58984;51.960;5.582;2023-03-01T16:58:43;14.60;38.40
71237;DHT22;58984;51.960;5.582;2023-03-01T17:01:10;14.50;38.50
71237;DHT22;58984;51.960;5.582;2023-03-01T17:03:37;14.40;38.40
71237;DHT22;58984;51.960;5.582;2023-03-01T17:06:05;14.40;38.40
71237;DHT22;58984;51.960;5.582;2023-03-01T17:08:31;14.40;38.50
71237;DHT22;58984;51.960;5.582;2023-03-01T17:11:06;14.30;38.40
71237;DHT22;58984;51.960;5.582;2023-03-01T17:13:32;14.30;38.30
71237;DHT22;58984;51.960;5.582;2023-03-01T17:15:57;14.20;38.10
71237;DHT22;58984;51.960;5.582;2023-03-01T17:18:23;14.30;38.20
71237;DHT22;58984;51.960;5.582;2023-03-01T17:20:49;14.20;37.90
71237;DHT22;58984;51.960;5.582;2023-03-01T17:23:15;14.20;38.10
71237;DHT22;58984;51.960;5.582;2023-03-01T17:25:44;14.10;38.00
71237;DHT22;58984;51.960;5.582;2023-03-01T17:28:11;14.10;37.90
71237;DHT22;58984;51.960;5.582;2023-03-01T17:30:37;14.10;38.70
71237;DHT22;58984;51.960;5.582;2023-03-01T17:33:02;14.00;37.90
71237;DHT22;58984;51.960;5.582;2023-03-01T17:35:28;14.00;38.00
71237;DHT22;58984;51.960;5.582;2023-03-01T17:37:53;13.90;37.90
71237;DHT22;58984;51.960;5.582;2023-03-01T17:40:19;13.90;37.90
71237;DHT22;58984;51.960;5.582;2023-03-01T17:42:46;13.90;37.90
71237;DHT22;58984;51.960;5.582;2023-03-01T17:45:11;13.80;37.80
71237;DHT22;58984;51.960;5.582;2023-03-01T17:47:37;13.80;37.90
71237;DHT22;58984;51.960;5.582;2023-03-01T17:50:02;13.80;37.90
71237;DHT22;58984;51.960;5.582;2023-03-01T17:52:30;13.70;37.80